sensor_id;sensor_type;location;lat;lon;timestamp;P1;durP1;ratioP1;P2;durP2;ratioP2
44662;SDS011;30381;52.754;18.258;2023-02-17T00:01:01;74.10;;;36.30;;
44662;SDS011;30381;52.754;18.258;2023-02-17T00:03:36;75.40;;;38.90;;
44662;SDS011;30381;52.754;18.258;2023-02-17T00:06:06;79.40;;;37.80;;
44662;SDS011;30381;52.754;18.258;2023-02-17T00:08:33;76.10;;;37.50;;
44662;SDS011;30381;52.754;18.258;2023-02-17T00:11:00;76.10;;;36.80;;
44662;SDS011;30381;52.754;18.258;2023-02-17T00:13:26;76.70;;;38.20;;
44662;SDS011;30381;52.754;18.258;2023-02-17T00:15:52;73.40;;;37.40;;
44662;SDS011;30381;52.754;18.258;2023-02-17T00:18:18;81.80;;;38.00;;
44662;SDS011;30381;52.754;18.258;2023-02-17T00:20:44;79.30;;;37.70;;
44662;SDS011;30381;52.754;18.258;2023-02-17T00:23:10;75.90;;;37.30;;
44662;SDS011;30381;52.754;18.258;2023-02-17T00:25:37;78.80;;;39.60;;
44662;SDS011;30381;52.754;18.258;2023-02-17T00:28:03;84.50;;;41.10;;
44662;SDS011;30381;52.754;18.258;2023-02-17T00:30:31;77.10;;;38.00;;
44662;SDS011;30381;52.754;18.258;2023-02-17T00:32:58;79.30;;;39.90;;
44662;SDS011;30381;52.754;18.258;2023-02-17T00:35:24;84.60;;;42.60;;
44662;SDS011;30381;52.754;18.258;2023-02-17T00:37:50;83.80;;;40.30;;
44662;SDS011;30381;52.754;18.258;2023-02-17T00:40:16;81.20;;;41.00;;
44662;SDS011;30381;52.754;18.258;2023-02-17T00:42:42;90.50;;;42.70;;
44662;SDS011;30381;52.754;18.258;2023-02-17T00:45:08;80.90;;;39.60;;
44662;SDS011;30381;52.754;18.258;2023-02-17T00:47:34;79.30;;;39.90;;
44662;SDS011;30381;52.754;18.258;2023-02-17T00:50:00;84.40;;;41.80;;
44662;SDS011;30381;52.754;18.258;2023-02-17T00:52:26;84.20;;;41.80;;
44662;SDS011;30381;52.754;18.258;2023-02-17T00:54:52;76.20;;;38.10;;
44662;SDS011;30381;52.754;18.258;2023-02-17T00:57:18;88.10;;;42.60;;
44662;SDS011;30381;52.754;18.258;2023-02-17T01:02:51;76.20;;;39.20;;
44662;SDS011;30381;52.754;18.258;2023-02-17T01:05:17;85.10;;;40.60;;
44662;SDS011;30381;52.754;18.258;2023-02-17T01:07:44;80.50;;;39.80;;
44662;SDS011;30381;52.754;18.258;2023-02-17T01:10:10;86.30;;;41.50;;
44662;SDS011;30381;52.754;18.258;2023-02-17T01:12:36;79.30;;;41.70;;
44662;SDS011;30381;52.754;18.258;2023-02-17T01:15:03;80.20;;;39.30;;
44662;SDS011;30381;52.754;18.258;2023-02-17T01:17:29;84.40;;;39.60;;
44662;SDS011;30381;52.754;18.258;2023-02-17T01:19:55;79.90;;;40.40;;
44662;SDS011;30381;52.754;18.258;2023-02-17T01:22:22;80.80;;;41.40;;
44662;SDS011;30381;52.754;18.258;2023-02-17T01:24:48;78.20;;;40.90;;
44662;SDS011;30381;52.754;18.258;2023-02-17T01:27:14;80.30;;;41.20;;
44662;SDS011;30381;52.754;18.258;2023-02-17T01:29:40;87.10;;;43.50;;
44662;SDS011;30381;52.754;18.258;2023-02-17T01:32:10;79.40;;;40.70;;
44662;SDS011;30381;52.754;18.258;2023-02-17T01:34:36;72.00;;;38.50;;
44662;SDS011;30381;52.754;18.258;2023-02-17T01:37:02;86.30;;;42.40;;
44662;SDS011;30381;52.754;18.258;2023-02-17T01:39:29;82.50;;;40.00;;
44662;SDS011;30381;52.754;18.258;2023-02-17T01:41:55;76.60;;;39.70;;
44662;SDS011;30381;52.754;18.258;2023-02-17T01:44:22;76.30;;;39.90;;
44662;SDS011;30381;52.754;18.258;2023-02-17T01:46:50;79.40;;;42.20;;
44662;SDS011;30381;52.754;18.258;2023-02-17T01:49:21;83.50;;;42.00;;
44662;SDS011;30381;52.754;18.258;2023-02-17T01:52:05;80.30;;;40.70;;
44662;SDS011;30381;52.754;18.258;2023-02-17T01:57:12;76.90;;;39.50;;
44662;SDS011;30381;52.754;18.258;2023-02-17T01:59:42;76.30;;;40.20;;
44662;SDS011;30381;52.754;18.258;2023-02-17T02:02:09;76.90;;;41.00;;
44662;SDS011;30381;52.754;18.258;2023-02-17T02:04:37;75.70;;;38.20;;
44662;SDS011;30381;52.754;18.258;2023-02-17T02:07:08;84.10;;;41.90;;
44662;SDS011;30381;52.754;18.258;2023-02-17T02:09:45;80.20;;;41.30;;
44662;SDS011;30381;52.754;18.258;2023-02-17T02:12:16;79.50;;;39.30;;
44662;SDS011;30381;52.754;18.258;2023-02-17T02:14:48;77.10;;;38.40;;
44662;SDS011;30381;52.754;18.258;2023-02-17T02:26:01;70.90;;;36.60;;
44662;SDS011;30381;52.754;18.258;2023-02-17T02:34:08;74.20;;;36.30;;
44662;SDS011;30381;52.754;18.258;2023-02-17T02:36:44;68.10;;;35.10;;
44662;SDS011;30381;52.754;18.258;2023-02-17T02:39:16;76.90;;;36.80;;
44662;SDS011;30381;52.754;18.258;2023-02-17T02:41:46;73.20;;;36.90;;
44662;SDS011;30381;52.754;18.258;2023-02-17T02:44:18;72.60;;;35.90;;
44662;SDS011;30381;52.754;18.258;2023-02-17T02:46:59;71.60;;;35.20;;
44662;SDS011;30381;52.754;18.258;2023-02-17T02:49:27;68.80;;;36.50;;
44662;SDS011;30381;52.754;18.258;2023-02-17T02:57:05;66.40;;;34.50;;
44662;SDS011;30381;52.754;18.258;2023-02-17T03:00:11;66.30;;;35.40;;
44662;SDS011;30381;52.754;18.258;2023-02-17T03:02:58;68.40;;;36.30;;
44662;SDS011;30381;52.754;18.258;2023-02-17T03:08:37;66.30;;;35.30;;
44662;SDS011;30381;52.754;18.258;2023-02-17T03:11:09;66.50;;;35.00;;
44662;SDS011;30381;52.754;18.258;2023-02-17T03:13:37;72.10;;;36.80;;
44662;SDS011;30381;52.754;18.258;2023-02-17T03:16:05;63.10;;;34.50;;
44662;SDS011;30381;52.754;18.258;2023-02-17T03:18:33;64.00;;;35.30;;
44662;SDS011;30381;52.754;18.258;2023-02-17T03:21:03;65.20;;;33.10;;
44662;SDS011;30381;52.754;18.258;2023-02-17T03:23:37;65.10;;;34.20;;
44662;SDS011;30381;52.754;18.258;2023-02-17T03:26:03;57.20;;;31.60;;
44662;SDS011;30381;52.754;18.258;2023-02-17T03:28:29;60.30;;;33.70;;
44662;SDS011;30381;52.754;18.258;2023-02-17T03:30:56;62.30;;;33.50;;
44662;SDS011;30381;52.754;18.258;2023-02-17T03:33:22;61.70;;;31.60;;
44662;SDS011;30381;52.754;18.258;2023-02-17T03:35:48;65.50;;;34.40;;
44662;SDS011;30381;52.754;18.258;2023-02-17T03:38:14;63.40;;;33.90;;
44662;SDS011;30381;52.754;18.258;2023-02-17T03:40:41;64.40;;;32.40;;
44662;SDS011;30381;52.754;18.258;2023-02-17T03:43:07;62.30;;;31.70;;
44662;SDS011;30381;52.754;18.258;2023-02-17T03:45:34;60.90;;;32.10;;
44662;SDS011;30381;52.754;18.258;2023-02-17T03:48:01;62.60;;;31.90;;
44662;SDS011;30381;52.754;18.258;2023-02-17T03:50:27;67.40;;;34.50;;
44662;SDS011;30381;52.754;18.258;2023-02-17T03:52:54;62.60;;;31.50;;
44662;SDS011;30381;52.754;18.258;2023-02-17T03:55:20;61.40;;;33.20;;
44662;SDS011;30381;52.754;18.258;2023-02-17T03:57:46;65.50;;;31.70;;
44662;SDS011;30381;52.754;18.258;2023-02-17T04:00:12;59.60;;;30.70;;
44662;SDS011;30381;52.754;18.258;2023-02-17T04:02:39;58.80;;;32.60;;
44662;SDS011;30381;52.754;18.258;2023-02-17T04:05:05;57.80;;;30.50;;
44662;SDS011;30381;52.754;18.258;2023-02-17T04:07:32;61.90;;;33.10;;
44662;SDS011;30381;52.754;18.258;2023-02-17T04:09:59;57.70;;;31.40;;
44662;SDS011;30381;52.754;18.258;2023-02-17T04:12:25;60.50;;;31.30;;
44662;SDS011;30381;52.754;18.258;2023-02-17T04:14:51;62.40;;;31.30;;
44662;SDS011;30381;52.754;18.258;2023-02-17T04:17:17;63.40;;;33.00;;
44662;SDS011;30381;52.754;18.258;2023-02-17T04:19:43;62.00;;;32.80;;
44662;SDS011;30381;52.754;18.258;2023-02-17T04:22:10;60.10;;;30.80;;
44662;SDS011;30381;52.754;18.258;2023-02-17T04:24:36;60.70;;;31.40;;
44662;SDS011;30381;52.754;18.258;2023-02-17T04:27:02;60.90;;;31.10;;
44662;SDS011;30381;52.754;18.258;2023-02-17T04:29:30;59.40;;;30.60;;
44662;SDS011;30381;52.754;18.258;2023-02-17T04:31:56;60.20;;;31.10;;
44662;SDS011;30381;52.754;18.258;2023-02-17T04:34:23;59.80;;;31.90;;
44662;SDS011;30381;52.754;18.258;2023-02-17T04:36:49;57.40;;;29.20;;
44662;SDS011;30381;52.754;18.258;2023-02-17T04:39:15;56.80;;;30.80;;
44662;SDS011;30381;52.754;18.258;2023-02-17T04:41:41;55.00;;;29.00;;
44662;SDS011;30381;52.754;18.258;2023-02-17T04:44:07;58.60;;;32.40;;
44662;SDS011;30381;52.754;18.258;2023-02-17T04:46:34;54.50;;;30.00;;
44662;SDS011;30381;52.754;18.258;2023-02-17T04:49:00;51.80;;;29.40;;
44662;SDS011;30381;52.754;18.258;2023-02-17T04:51:26;54.80;;;30.80;;
44662;SDS011;30381;52.754;18.258;2023-02-17T04:53:52;54.10;;;29.50;;
44662;SDS011;30381;52.754;18.258;2023-02-17T04:56:18;58.00;;;31.00;;
44662;SDS011;30381;52.754;18.258;2023-02-17T04:58:44;54.60;;;28.20;;
44662;SDS011;30381;52.754;18.258;2023-02-17T05:01:11;56.80;;;29.90;;
44662;SDS011;30381;52.754;18.258;2023-02-17T05:03:37;62.80;;;30.30;;
44662;SDS011;30381;52.754;18.258;2023-02-17T05:06:03;63.80;;;30.70;;
44662;SDS011;30381;52.754;18.258;2023-02-17T05:08:29;55.20;;;28.90;;
44662;SDS011;30381;52.754;18.258;2023-02-17T05:10:55;63.00;;;31.00;;
44662;SDS011;30381;52.754;18.258;2023-02-17T05:13:21;56.90;;;30.10;;
44662;SDS011;30381;52.754;18.258;2023-02-17T05:15:48;55.00;;;28.40;;
44662;SDS011;30381;52.754;18.258;2023-02-17T05:18:14;55.00;;;27.90;;
44662;SDS011;30381;52.754;18.258;2023-02-17T05:20:40;60.30;;;30.60;;
44662;SDS011;30381;52.754;18.258;2023-02-17T05:23:07;61.00;;;29.10;;
44662;SDS011;30381;52.754;18.258;2023-02-17T05:25:34;56.00;;;28.90;;
44662;SDS011;30381;52.754;18.258;2023-02-17T05:28:00;53.10;;;29.20;;
44662;SDS011;30381;52.754;18.258;2023-02-17T05:30:26;49.20;;;27.70;;
44662;SDS011;30381;52.754;18.258;2023-02-17T05:32:53;58.00;;;30.30;;
44662;SDS011;30381;52.754;18.258;2023-02-17T05:35:20;54.70;;;28.60;;
44662;SDS011;30381;52.754;18.258;2023-02-17T05:37:46;54.70;;;29.00;;
44662;SDS011;30381;52.754;18.258;2023-02-17T05:40:14;54.50;;;29.00;;
44662;SDS011;30381;52.754;18.258;2023-02-17T05:42:40;55.80;;;28.10;;
44662;SDS011;30381;52.754;18.258;2023-02-17T05:45:06;54.80;;;27.40;;
44662;SDS011;30381;52.754;18.258;2023-02-17T05:47:33;53.50;;;28.80;;
44662;SDS011;30381;52.754;18.258;2023-02-17T05:50:00;54.30;;;29.10;;
44662;SDS011;30381;52.754;18.258;2023-02-17T05:52:27;54.70;;;28.60;;
44662;SDS011;30381;52.754;18.258;2023-02-17T05:54:53;54.00;;;28.60;;
44662;SDS011;30381;52.754;18.258;2023-02-17T05:57:19;56.80;;;29.30;;
44662;SDS011;30381;52.754;18.258;2023-02-17T05:59:46;57.90;;;31.30;;
44662;SDS011;30381;52.754;18.258;2023-02-17T06:02:12;56.40;;;31.20;;
44662;SDS011;30381;52.754;18.258;2023-02-17T06:04:38;60.90;;;31.90;;
44662;SDS011;30381;52.754;18.258;2023-02-17T06:07:04;53.40;;;29.80;;
44662;SDS011;30381;52.754;18.258;2023-02-17T06:09:32;58.40;;;28.80;;
44662;SDS011;30381;52.754;18.258;2023-02-17T06:11:58;57.00;;;28.40;;
44662;SDS011;30381;52.754;18.258;2023-02-17T06:14:35;56.30;;;29.20;;
44662;SDS011;30381;52.754;18.258;2023-02-17T06:17:02;53.10;;;28.80;;
44662;SDS011;30381;52.754;18.258;2023-02-17T06:19:29;56.90;;;30.60;;
44662;SDS011;30381;52.754;18.258;2023-02-17T06:21:56;55.60;;;29.30;;
44662;SDS011;30381;52.754;18.258;2023-02-17T06:24:23;51.10;;;27.90;;
44662;SDS011;30381;52.754;18.258;2023-02-17T06:26:54;53.60;;;30.50;;
44662;SDS011;30381;52.754;18.258;2023-02-17T06:29:20;53.00;;;28.80;;
44662;SDS011;30381;52.754;18.258;2023-02-17T06:31:56;60.40;;;28.40;;
44662;SDS011;30381;52.754;18.258;2023-02-17T06:34:23;53.90;;;26.80;;
44662;SDS011;30381;52.754;18.258;2023-02-17T06:37:01;59.10;;;28.50;;
44662;SDS011;30381;52.754;18.258;2023-02-17T06:39:28;58.90;;;27.80;;
44662;SDS011;30381;52.754;18.258;2023-02-17T06:42:00;54.00;;;28.10;;
44662;SDS011;30381;52.754;18.258;2023-02-17T06:44:28;56.80;;;27.80;;
44662;SDS011;30381;52.754;18.258;2023-02-17T06:46:54;57.40;;;28.80;;
44662;SDS011;30381;52.754;18.258;2023-02-17T06:49:21;50.20;;;27.10;;
44662;SDS011;30381;52.754;18.258;2023-02-17T06:51:47;58.70;;;28.10;;
44662;SDS011;30381;52.754;18.258;2023-02-17T06:54:14;57.70;;;30.30;;
44662;SDS011;30381;52.754;18.258;2023-02-17T06:56:47;50.60;;;25.50;;
44662;SDS011;30381;52.754;18.258;2023-02-17T06:59:15;56.80;;;28.60;;
44662;SDS011;30381;52.754;18.258;2023-02-17T07:01:44;57.20;;;29.60;;
44662;SDS011;30381;52.754;18.258;2023-02-17T07:04:15;54.00;;;27.50;;
44662;SDS011;30381;52.754;18.258;2023-02-17T07:06:42;56.70;;;29.50;;
44662;SDS011;30381;52.754;18.258;2023-02-17T07:09:10;59.30;;;28.70;;
44662;SDS011;30381;52.754;18.258;2023-02-17T07:12:00;59.10;;;29.30;;
44662;SDS011;30381;52.754;18.258;2023-02-17T07:14:28;54.80;;;28.10;;
44662;SDS011;30381;52.754;18.258;2023-02-17T07:16:56;50.40;;;27.70;;
44662;SDS011;30381;52.754;18.258;2023-02-17T07:19:26;54.70;;;28.50;;
44662;SDS011;30381;52.754;18.258;2023-02-17T07:21:55;45.50;;;25.80;;
44662;SDS011;30381;52.754;18.258;2023-02-17T07:24:21;55.90;;;27.80;;
44662;SDS011;30381;52.754;18.258;2023-02-17T07:26:48;54.00;;;28.20;;
44662;SDS011;30381;52.754;18.258;2023-02-17T07:29:15;58.00;;;29.60;;
44662;SDS011;30381;52.754;18.258;2023-02-17T07:31:42;51.70;;;29.90;;
44662;SDS011;30381;52.754;18.258;2023-02-17T07:34:08;55.90;;;29.80;;
44662;SDS011;30381;52.754;18.258;2023-02-17T07:36:35;56.40;;;28.90;;
44662;SDS011;30381;52.754;18.258;2023-02-17T07:39:02;53.80;;;28.40;;
44662;SDS011;30381;52.754;18.258;2023-02-17T07:41:29;59.80;;;30.60;;
44662;SDS011;30381;52.754;18.258;2023-02-17T07:43:58;55.40;;;29.00;;
44662;SDS011;30381;52.754;18.258;2023-02-17T07:46:24;57.80;;;30.30;;
44662;SDS011;30381;52.754;18.258;2023-02-17T07:48:52;57.00;;;31.10;;
44662;SDS011;30381;52.754;18.258;2023-02-17T07:51:20;56.70;;;29.90;;
44662;SDS011;30381;52.754;18.258;2023-02-17T07:53:48;51.70;;;29.00;;
44662;SDS011;30381;52.754;18.258;2023-02-17T07:56:17;57.00;;;30.40;;
44662;SDS011;30381;52.754;18.258;2023-02-17T07:58:48;51.70;;;29.10;;
44662;SDS011;30381;52.754;18.258;2023-02-17T08:01:23;61.40;;;31.10;;
44662;SDS011;30381;52.754;18.258;2023-02-17T08:04:03;58.60;;;32.40;;
44662;SDS011;30381;52.754;18.258;2023-02-17T08:06:29;56.90;;;29.40;;
44662;SDS011;30381;52.754;18.258;2023-02-17T08:08:56;56.90;;;29.90;;
44662;SDS011;30381;52.754;18.258;2023-02-17T08:11:41;58.70;;;30.60;;
44662;SDS011;30381;52.754;18.258;2023-02-17T08:14:27;58.20;;;29.70;;
44662;SDS011;30381;52.754;18.258;2023-02-17T08:16:59;63.90;;;32.00;;
44662;SDS011;30381;52.754;18.258;2023-02-17T08:19:25;62.40;;;31.70;;
44662;SDS011;30381;52.754;18.258;2023-02-17T08:21:52;56.70;;;30.20;;
44662;SDS011;30381;52.754;18.258;2023-02-17T08:24:19;61.80;;;30.40;;
44662;SDS011;30381;52.754;18.258;2023-02-17T08:26:46;59.20;;;32.90;;
44662;SDS011;30381;52.754;18.258;2023-02-17T08:29:13;63.60;;;33.80;;
44662;SDS011;30381;52.754;18.258;2023-02-17T08:31:45;59.30;;;31.50;;
44662;SDS011;30381;52.754;18.258;2023-02-17T08:34:12;56.10;;;30.10;;
44662;SDS011;30381;52.754;18.258;2023-02-17T08:36:39;54.60;;;30.70;;
44662;SDS011;30381;52.754;18.258;2023-02-17T08:39:09;70.30;;;34.40;;
44662;SDS011;30381;52.754;18.258;2023-02-17T08:41:38;67.90;;;36.10;;
44662;SDS011;30381;52.754;18.258;2023-02-17T08:44:09;64.40;;;33.10;;
44662;SDS011;30381;52.754;18.258;2023-02-17T08:46:40;59.40;;;31.50;;
44662;SDS011;30381;52.754;18.258;2023-02-17T08:49:06;64.10;;;31.90;;
44662;SDS011;30381;52.754;18.258;2023-02-17T08:51:33;69.10;;;34.40;;
44662;SDS011;30381;52.754;18.258;2023-02-17T08:54:00;60.90;;;32.80;;
44662;SDS011;30381;52.754;18.258;2023-02-17T08:56:28;68.10;;;35.00;;
44662;SDS011;30381;52.754;18.258;2023-02-17T08:58:56;62.00;;;33.90;;
44662;SDS011;30381;52.754;18.258;2023-02-17T09:01:25;59.50;;;32.90;;
44662;SDS011;30381;52.754;18.258;2023-02-17T09:03:52;56.30;;;34.00;;
44662;SDS011;30381;52.754;18.258;2023-02-17T09:06:35;59.20;;;33.30;;
44662;SDS011;30381;52.754;18.258;2023-02-17T09:09:11;62.90;;;32.30;;
44662;SDS011;30381;52.754;18.258;2023-02-17T09:11:40;56.80;;;30.70;;
44662;SDS011;30381;52.754;18.258;2023-02-17T09:14:09;55.50;;;32.60;;
44662;SDS011;30381;52.754;18.258;2023-02-17T09:16:35;59.60;;;31.80;;
44662;SDS011;30381;52.754;18.258;2023-02-17T09:19:04;56.60;;;32.00;;
44662;SDS011;30381;52.754;18.258;2023-02-17T09:21:31;56.20;;;30.90;;
44662;SDS011;30381;52.754;18.258;2023-02-17T09:24:14;55.70;;;31.90;;
44662;SDS011;30381;52.754;18.258;2023-02-17T09:26:41;56.60;;;33.60;;
44662;SDS011;30381;52.754;18.258;2023-02-17T09:29:19;59.90;;;31.10;;
44662;SDS011;30381;52.754;18.258;2023-02-17T09:31:45;58.50;;;32.10;;
44662;SDS011;30381;52.754;18.258;2023-02-17T09:34:34;59.30;;;32.60;;
44662;SDS011;30381;52.754;18.258;2023-02-17T09:37:37;57.30;;;31.80;;
44662;SDS011;30381;52.754;18.258;2023-02-17T09:40:05;52.20;;;30.90;;
44662;SDS011;30381;52.754;18.258;2023-02-17T09:42:35;59.90;;;32.90;;
44662;SDS011;30381;52.754;18.258;2023-02-17T09:45:10;52.60;;;32.00;;
44662;SDS011;30381;52.754;18.258;2023-02-17T09:47:52;55.30;;;30.70;;
44662;SDS011;30381;52.754;18.258;2023-02-17T09:53:06;55.60;;;31.60;;
44662;SDS011;30381;52.754;18.258;2023-02-17T09:55:42;55.00;;;30.60;;
44662;SDS011;30381;52.754;18.258;2023-02-17T09:58:26;56.90;;;32.30;;
44662;SDS011;30381;52.754;18.258;2023-02-17T10:01:00;54.40;;;31.30;;
44662;SDS011;30381;52.754;18.258;2023-02-17T10:03:38;54.10;;;29.50;;
44662;SDS011;30381;52.754;18.258;2023-02-17T10:12:08;56.30;;;31.70;;
44662;SDS011;30381;52.754;18.258;2023-02-17T10:14:48;52.20;;;28.90;;
44662;SDS011;30381;52.754;18.258;2023-02-17T10:19:55;49.50;;;28.30;;
44662;SDS011;30381;52.754;18.258;2023-02-17T10:22:23;55.20;;;27.80;;
44662;SDS011;30381;52.754;18.258;2023-02-17T10:24:50;52.30;;;31.50;;
44662;SDS011;30381;52.754;18.258;2023-02-17T10:29:49;53.80;;;30.90;;
44662;SDS011;30381;52.754;18.258;2023-02-17T10:40:19;50.50;;;29.20;;
44662;SDS011;30381;52.754;18.258;2023-02-17T10:42:53;58.80;;;32.50;;
44662;SDS011;30381;52.754;18.258;2023-02-17T10:48:10;55.90;;;34.70;;
44662;SDS011;30381;52.754;18.258;2023-02-17T10:50:41;59.70;;;36.50;;
44662;SDS011;30381;52.754;18.258;2023-02-17T10:53:11;50.20;;;31.50;;
44662;SDS011;30381;52.754;18.258;2023-02-17T10:58:31;55.90;;;32.70;;
44662;SDS011;30381;52.754;18.258;2023-02-17T11:01:15;47.30;;;27.60;;
44662;SDS011;30381;52.754;18.258;2023-02-17T11:03:43;127.90;;;72.10;;
44662;SDS011;30381;52.754;18.258;2023-02-17T11:06:19;80.60;;;40.30;;
44662;SDS011;30381;52.754;18.258;2023-02-17T11:08:51;57.70;;;32.30;;
44662;SDS011;30381;52.754;18.258;2023-02-17T11:11:22;55.10;;;30.30;;
44662;SDS011;30381;52.754;18.258;2023-02-17T11:13:57;48.70;;;26.80;;
44662;SDS011;30381;52.754;18.258;2023-02-17T11:16:35;48.50;;;28.10;;
44662;SDS011;30381;52.754;18.258;2023-02-17T11:19:16;68.30;;;35.50;;
44662;SDS011;30381;52.754;18.258;2023-02-17T11:21:49;55.20;;;32.40;;
44662;SDS011;30381;52.754;18.258;2023-02-17T11:24:17;45.90;;;28.00;;
44662;SDS011;30381;52.754;18.258;2023-02-17T11:26:53;54.80;;;29.80;;
44662;SDS011;30381;52.754;18.258;2023-02-17T11:29:25;52.40;;;28.60;;
44662;SDS011;30381;52.754;18.258;2023-02-17T11:32:00;49.90;;;30.30;;
44662;SDS011;30381;52.754;18.258;2023-02-17T11:34:35;50.30;;;27.10;;
44662;SDS011;30381;52.754;18.258;2023-02-17T11:37:26;121.40;;;46.50;;
44662;SDS011;30381;52.754;18.258;2023-02-17T11:39:59;68.40;;;33.00;;
44662;SDS011;30381;52.754;18.258;2023-02-17T11:43:01;42.60;;;23.50;;
44662;SDS011;30381;52.754;18.258;2023-02-17T11:45:54;54.60;;;27.90;;
44662;SDS011;30381;52.754;18.258;2023-02-17T11:48:37;53.80;;;26.50;;
44662;SDS011;30381;52.754;18.258;2023-02-17T11:54:51;99.90;;;43.00;;
44662;SDS011;30381;52.754;18.258;2023-02-17T11:57:40;47.40;;;24.50;;
44662;SDS011;30381;52.754;18.258;2023-02-17T12:00:50;52.50;;;28.10;;
44662;SDS011;30381;52.754;18.258;2023-02-17T12:17:15;63.20;;;32.70;;
44662;SDS011;30381;52.754;18.258;2023-02-17T12:19:56;55.50;;;28.80;;
44662;SDS011;30381;52.754;18.258;2023-02-17T12:35:22;56.30;;;29.20;;
44662;SDS011;30381;52.754;18.258;2023-02-17T12:37:56;49.30;;;26.00;;
44662;SDS011;30381;52.754;18.258;2023-02-17T12:46:23;60.40;;;28.70;;
44662;SDS011;30381;52.754;18.258;2023-02-17T12:49:31;53.60;;;27.20;;
44662;SDS011;30381;52.754;18.258;2023-02-17T12:55:34;43.00;;;24.90;;
44662;SDS011;30381;52.754;18.258;2023-02-17T12:57:58;46.30;;;25.60;;
44662;SDS011;30381;52.754;18.258;2023-02-17T13:00:41;52.20;;;28.30;;
44662;SDS011;30381;52.754;18.258;2023-02-17T13:03:20;56.40;;;29.80;;
44662;SDS011;30381;52.754;18.258;2023-02-17T13:05:58;48.10;;;25.70;;
44662;SDS011;30381;52.754;18.258;2023-02-17T13:11:51;48.30;;;27.00;;
44662;SDS011;30381;52.754;18.258;2023-02-17T13:14:27;49.00;;;25.30;;
44662;SDS011;30381;52.754;18.258;2023-02-17T13:17:03;44.00;;;24.80;;
44662;SDS011;30381;52.754;18.258;2023-02-17T13:19:33;42.80;;;23.20;;
44662;SDS011;30381;52.754;18.258;2023-02-17T13:22:00;45.00;;;25.00;;
44662;SDS011;30381;52.754;18.258;2023-02-17T13:24:30;43.30;;;24.10;;
44662;SDS011;30381;52.754;18.258;2023-02-17T13:32:10;80.90;;;32.90;;
44662;SDS011;30381;52.754;18.258;2023-02-17T13:37:45;43.70;;;23.20;;
44662;SDS011;30381;52.754;18.258;2023-02-17T13:42:42;38.40;;;22.90;;
44662;SDS011;30381;52.754;18.258;2023-02-17T13:47:46;47.20;;;25.10;;
44662;SDS011;30381;52.754;18.258;2023-02-17T13:50:35;54.30;;;27.70;;
44662;SDS011;30381;52.754;18.258;2023-02-17T13:53:19;38.80;;;21.60;;
44662;SDS011;30381;52.754;18.258;2023-02-17T13:55:49;33.90;;;20.60;;
44662;SDS011;30381;52.754;18.258;2023-02-17T13:58:29;33.00;;;20.30;;
44662;SDS011;30381;52.754;18.258;2023-02-17T14:01:01;30.20;;;17.90;;
44662;SDS011;30381;52.754;18.258;2023-02-17T14:06:04;35.40;;;19.30;;
44662;SDS011;30381;52.754;18.258;2023-02-17T14:11:15;37.00;;;20.50;;
44662;SDS011;30381;52.754;18.258;2023-02-17T14:13:46;32.70;;;18.30;;
44662;SDS011;30381;52.754;18.258;2023-02-17T14:22:05;74.60;;;31.80;;
44662;SDS011;30381;52.754;18.258;2023-02-17T14:38:56;54.10;;;25.90;;
44662;SDS011;30381;52.754;18.258;2023-02-17T14:41:33;45.80;;;22.70;;
44662;SDS011;30381;52.754;18.258;2023-02-17T14:44:10;54.30;;;26.40;;
44662;SDS011;30381;52.754;18.258;2023-02-17T14:46:48;55.20;;;24.20;;
44662;SDS011;30381;52.754;18.258;2023-02-17T14:49:26;69.60;;;27.10;;
44662;SDS011;30381;52.754;18.258;2023-02-17T14:52:19;56.30;;;26.40;;
44662;SDS011;30381;52.754;18.258;2023-02-17T14:54:48;41.30;;;22.20;;
44662;SDS011;30381;52.754;18.258;2023-02-17T14:57:15;37.40;;;21.20;;
44662;SDS011;30381;52.754;18.258;2023-02-17T14:59:42;45.00;;;23.60;;
44662;SDS011;30381;52.754;18.258;2023-02-17T15:02:18;50.60;;;24.20;;
44662;SDS011;30381;52.754;18.258;2023-02-17T15:04:48;57.30;;;26.50;;
44662;SDS011;30381;52.754;18.258;2023-02-17T15:07:21;40.30;;;22.00;;
44662;SDS011;30381;52.754;18.258;2023-02-17T15:09:47;36.70;;;20.60;;
44662;SDS011;30381;52.754;18.258;2023-02-17T15:12:18;47.50;;;23.10;;
44662;SDS011;30381;52.754;18.258;2023-02-17T15:14:49;44.50;;;21.30;;
44662;SDS011;30381;52.754;18.258;2023-02-17T15:17:23;36.20;;;20.80;;
44662;SDS011;30381;52.754;18.258;2023-02-17T15:20:00;66.90;;;29.40;;
44662;SDS011;30381;52.754;18.258;2023-02-17T15:22:33;40.70;;;20.50;;
44662;SDS011;30381;52.754;18.258;2023-02-17T15:24:59;144.10;;;57.20;;
44662;SDS011;30381;52.754;18.258;2023-02-17T15:27:42;56.70;;;31.50;;
44662;SDS011;30381;52.754;18.258;2023-02-17T15:30:17;38.00;;;20.90;;
44662;SDS011;30381;52.754;18.258;2023-02-17T15:32:57;40.20;;;23.00;;
44662;SDS011;30381;52.754;18.258;2023-02-17T15:35:51;29.30;;;18.50;;
44662;SDS011;30381;52.754;18.258;2023-02-17T15:38:50;29.20;;;18.60;;
44662;SDS011;30381;52.754;18.258;2023-02-17T16:37:15;49.40;;;31.10;;
44662;SDS011;30381;52.754;18.258;2023-02-17T16:41:11;43.90;;;30.00;;
44662;SDS011;30381;52.754;18.258;2023-02-17T16:44:36;41.20;;;29.20;;
44662;SDS011;30381;52.754;18.258;2023-02-17T16:51:50;43.60;;;29.00;;
44662;SDS011;30381;52.754;18.258;2023-02-17T17:43:09;72.60;;;41.70;;
44662;SDS011;30381;52.754;18.258;2023-02-17T19:43:31;26.10;;;13.80;;
44662;SDS011;30381;52.754;18.258;2023-02-17T20:21:52;9.50;;;4.10;;
44662;SDS011;30381;52.754;18.258;2023-02-17T20:25:03;13.10;;;5.50;;
44662;SDS011;30381;52.754;18.258;2023-02-17T20:51:58;9.50;;;2.20;;
44662;SDS011;30381;52.754;18.258;2023-02-17T20:54:56;13.90;;;4.20;;
44662;SDS011;30381;52.754;18.258;2023-02-17T21:19:45;11.40;;;2.60;;
44662;SDS011;30381;52.754;18.258;2023-02-17T21:23:37;14.30;;;3.50;;
44662;SDS011;30381;52.754;18.258;2023-02-17T21:30:21;25.50;;;11.20;;
44662;SDS011;30381;52.754;18.258;2023-02-17T21:37:19;14.20;;;2.70;;
44662;SDS011;30381;52.754;18.258;2023-02-17T21:40:36;13.50;;;3.00;;
44662;SDS011;30381;52.754;18.258;2023-02-17T21:46:52;11.00;;;1.80;;
44662;SDS011;30381;52.754;18.258;2023-02-17T21:49:27;11.50;;;2.20;;
44662;SDS011;30381;52.754;18.258;2023-02-17T21:52:43;12.60;;;1.90;;
44662;SDS011;30381;52.754;18.258;2023-02-17T21:58:51;12.60;;;2.60;;
44662;SDS011;30381;52.754;18.258;2023-02-17T22:01:20;18.40;;;2.30;;
44662;SDS011;30381;52.754;18.258;2023-02-17T22:04:07;15.20;;;2.80;;
44662;SDS011;30381;52.754;18.258;2023-02-17T22:06:46;21.20;;;8.50;;
44662;SDS011;30381;52.754;18.258;2023-02-17T22:09:15;27.60;;;12.30;;
44662;SDS011;30381;52.754;18.258;2023-02-17T22:11:45;20.90;;;6.00;;
44662;SDS011;30381;52.754;18.258;2023-02-17T22:14:14;25.40;;;9.00;;
44662;SDS011;30381;52.754;18.258;2023-02-17T22:16:49;19.20;;;6.90;;
44662;SDS011;30381;52.754;18.258;2023-02-17T22:19:17;15.80;;;3.00;;